createdAt,value
2018-02-19T00:00:47.465Z,98534.55
2018-02-19T00:01:52.262Z,98535.81
2018-02-19T00:02:56.843Z,98536.20
2018-02-19T00:04:01.379Z,98541.57
2018-02-19T00:05:05.980Z,98533.34
2018-02-19T00:06:10.486Z,98528.83
2018-02-19T00:07:15.047Z,98528.01
2018-02-19T00:08:19.871Z,98525.95
2018-02-19T00:09:24.468Z,98531.67
2018-02-19T00:10:29.050Z,98527.56
2018-02-19T00:11:33.648Z,98516.02
2018-02-19T00:12:38.559Z,98521.76
2018-02-19T00:13:43.307Z,98524.64
2018-02-19T00:14:48.081Z,98519.34
2018-02-19T00:15:52.844Z,98518.52
2018-02-19T00:16:57.614Z,98521.81
2018-02-19T00:18:02.407Z,98514.03
2018-02-19T00:19:07.362Z,98512.39
2018-02-19T00:20:11.986Z,98515.65
2018-02-19T00:21:16.589Z,98516.06
2018-02-19T00:22:21.175Z,98511.12
2018-02-19T00:23:26.007Z,98510.67
2018-02-19T00:24:31.487Z,98509.03
2018-02-19T00:25:36.554Z,98513.95
2018-02-19T00:26:41.377Z,98505.34
2018-02-19T00:27:46.221Z,98506.61
2018-02-19T00:28:51.014Z,98507.84
2018-02-19T00:29:55.793Z,98501.27
2018-02-19T00:31:00.476Z,98502.45
2018-02-19T00:32:05.414Z,98505.33
2018-02-19T00:33:10.059Z,98500.41
2018-02-19T00:34:14.833Z,98507.80
2018-02-19T00:35:19.690Z,98500.41
2018-02-19T00:36:24.466Z,98500.03
2018-02-19T00:37:29.236Z,98501.23
2018-02-19T00:38:34.324Z,98499.17
2018-02-19T00:39:39.099Z,98500.85
2018-02-19T00:40:43.940Z,98499.17
2018-02-19T00:41:48.729Z,98501.63
2018-02-19T00:42:53.447Z,98500.39
2018-02-19T00:43:58.221Z,98497.93
2018-02-19T00:45:03.255Z,98504.91
2018-02-19T00:46:07.972Z,98497.53
2018-02-19T00:47:12.633Z,98497.53
2018-02-19T00:48:17.294Z,98496.33
2018-02-19T00:49:22.043Z,98497.16
2018-02-19T00:50:26.816Z,98493.05
2018-02-19T00:51:32.154Z,98494.69
2018-02-19T00:52:36.969Z,98493.45
2018-02-19T00:53:41.802Z,98497.98
2018-02-19T00:54:46.568Z,98492.22
2018-02-19T00:55:51.285Z,98488.96
2018-02-19T00:56:56.060Z,98488.13
2018-02-19T00:58:01.162Z,98493.48
2018-02-19T00:59:06.020Z,98488.97
2018-02-19T01:00:10.820Z,98496.77
2018-02-19T01:01:15.666Z,98490.19
2018-02-19T01:02:20.428Z,98488.97
2018-02-19T01:03:25.059Z,98488.12
2018-02-19T01:04:29.952Z,98491.83
2018-02-19T01:05:34.538Z,98490.59
2018-02-19T01:06:39.153Z,98486.06
2018-02-19T01:07:43.984Z,98486.03
2018-02-19T01:08:48.739Z,98490.55
2018-02-19T01:09:53.486Z,98485.66
2018-02-19T01:10:58.377Z,98486.06
2018-02-19T01:12:03.167Z,98483.98
2018-02-19T01:13:07.691Z,98483.19
2018-02-19T01:14:12.314Z,98477.02
2018-02-19T01:15:16.926Z,98478.66
2018-02-19T01:16:21.515Z,98474.97
2018-02-19T01:17:26.381Z,98472.88
2018-02-19T01:18:31.028Z,98470.45
2018-02-19T01:19:35.704Z,98470.83
2018-02-19T01:20:40.328Z,98468.39
2018-02-19T01:21:44.949Z,98464.28
2018-02-19T01:22:49.584Z,98466.34
2018-02-19T01:23:54.609Z,98459.35
2018-02-19T01:24:59.367Z,98458.52
2018-02-19T01:26:04.728Z,98455.64
2018-02-19T01:27:10.149Z,98463.89
2018-02-19T01:28:14.781Z,98462.66
2018-02-19T01:29:19.387Z,98459.38
2018-02-19T01:30:24.419Z,98456.48
2018-02-19T01:31:29.161Z,98458.13
2018-02-19T01:32:33.875Z,98463.05
2018-02-19T01:33:38.684Z,98459.34
2018-02-19T01:34:43.462Z,98465.95
2018-02-19T01:35:48.227Z,98449.89
2018-02-19T01:36:53.767Z,98456.89
2018-02-19T01:37:58.591Z,98457.72
2018-02-19T01:39:03.454Z,98455.23
2018-02-19T01:40:08.256Z,98456.88
2018-02-19T01:41:12.983Z,98453.58
2018-02-19T01:42:17.709Z,98448.64
2018-02-19T01:43:22.666Z,98449.88
2018-02-19T01:44:27.354Z,98447.03
2018-02-19T01:45:31.989Z,98444.97
2018-02-19T01:46:36.646Z,98440.45
2018-02-19T01:47:41.377Z,98444.16
2018-02-19T01:48:46.186Z,98435.92
2018-02-19T01:49:55.369Z,98437.56
2018-02-19T01:51:00.043Z,98433.06
2018-02-19T01:52:04.728Z,98427.30
2018-02-19T01:53:09.407Z,98424.42
2018-02-19T01:54:14.059Z,98424.83
2018-02-19T01:55:18.705Z,98424.41
2018-02-19T01:56:23.704Z,98415.37
2018-02-19T01:57:28.378Z,98419.89
2018-02-19T01:58:33.103Z,98418.23
2018-02-19T01:59:38.538Z,98414.14
2018-02-19T02:00:43.323Z,98415.36
2018-02-19T02:01:48.100Z,98413.73
2018-02-19T02:02:53.126Z,98412.89
2018-02-19T02:03:57.880Z,98412.08
2018-02-19T02:05:02.659Z,98414.55
2018-02-19T02:06:07.412Z,98412.89
2018-02-19T02:07:12.166Z,98407.56
2018-02-19T02:08:16.945Z,98410.03
2018-02-19T02:09:21.996Z,98407.16
2018-02-19T02:10:26.792Z,98409.61
2018-02-19T02:11:31.586Z,98407.94
2018-02-19T02:12:36.356Z,98407.53
2018-02-19T02:13:41.190Z,98418.20
2018-02-19T02:14:45.956Z,98407.50
2018-02-19T02:15:51.012Z,98414.05
2018-02-19T02:16:55.759Z,98411.58
2018-02-19T02:18:00.556Z,98409.50
2018-02-19T02:19:05.324Z,98408.30
2018-02-19T02:20:10.018Z,98411.17
2018-02-19T02:21:14.741Z,98413.64
2018-02-19T02:22:20.435Z,98405.45
2018-02-19T02:23:25.168Z,98401.34
2018-02-19T02:24:29.989Z,98398.47
2018-02-19T02:25:34.759Z,98405.50
2018-02-19T02:26:39.516Z,98400.55
2018-02-19T02:27:44.359Z,98403.45
2018-02-19T02:28:49.119Z,98395.63
2018-02-19T02:29:53.884Z,98400.19
2018-02-19T02:30:58.612Z,98390.33
2018-02-19T02:32:03.398Z,98391.13
2018-02-19T02:33:08.178Z,98389.88
2018-02-19T02:34:13.255Z,98389.47
2018-02-19T02:35:17.993Z,98386.58
2018-02-19T02:36:22.751Z,98383.27
2018-02-19T02:37:27.509Z,98379.15
2018-02-19T02:38:32.271Z,98381.18
2018-02-19T02:39:37.103Z,98381.61
2018-02-19T02:40:42.200Z,98379.97
2018-02-19T02:41:46.998Z,98386.53
2018-02-19T02:42:51.744Z,98389.01
2018-02-19T02:43:56.531Z,98384.48
2018-02-19T02:45:01.307Z,98374.61
2018-02-19T02:46:06.110Z,98380.34
2018-02-19T02:47:11.142Z,98375.79
2018-02-19T02:48:15.941Z,98373.72
2018-02-19T02:49:20.660Z,98370.44
2018-02-19T02:50:25.447Z,98370.91
2018-02-19T02:51:30.193Z,98369.69
2018-02-19T02:52:35.034Z,98372.98
2018-02-19T02:53:40.054Z,98372.97
2018-02-19T02:54:44.896Z,98373.75
2018-02-19T02:55:49.655Z,98372.12
2018-02-19T02:56:54.448Z,98372.51
2018-02-19T02:57:59.272Z,98374.16
2018-02-19T02:59:04.116Z,98374.97
2018-02-19T03:00:09.195Z,98371.72
2018-02-19T03:01:13.930Z,98373.38
2018-02-19T03:02:18.746Z,98372.16
2018-02-19T03:03:23.485Z,98366.80
2018-02-19T03:04:28.099Z,98370.91
2018-02-19T03:05:32.697Z,98368.86
2018-02-19T03:06:37.774Z,98367.19
2018-02-19T03:07:42.581Z,98363.09
2018-02-19T03:08:47.339Z,98361.87
2018-02-19T03:09:52.205Z,98364.36
2018-02-19T03:10:56.973Z,98361.91
2018-02-19T03:12:01.619Z,98363.16
2018-02-19T03:13:06.532Z,98356.58
2018-02-19T03:14:11.129Z,98362.74
2018-02-19T03:15:15.733Z,98362.33
2018-02-19T03:16:20.358Z,98359.44
2018-02-19T03:17:25.131Z,98353.27
2018-02-19T03:18:29.908Z,98351.63
2018-02-19T03:19:35.591Z,98357.80
2018-02-19T03:20:40.352Z,98349.13
2018-02-19T03:21:45.097Z,98352.44
2018-02-19T03:22:49.877Z,98356.98
2018-02-19T03:23:54.673Z,98352.47
2018-02-19T03:24:59.390Z,98348.35
2018-02-19T03:26:04.445Z,98352.86
2018-02-19T03:27:09.182Z,98352.05
2018-02-19T03:28:14.041Z,98347.90
2018-02-19T03:29:18.788Z,98353.23
2018-02-19T03:30:23.518Z,98353.63
2018-02-19T03:31:28.305Z,98355.27
2018-02-19T03:32:33.421Z,98352.77
2018-02-19T03:33:38.243Z,98351.16
2018-02-19T03:34:42.988Z,98352.75
2018-02-19T03:35:47.748Z,98352.31
2018-02-19T03:36:52.544Z,98346.15
2018-02-19T03:37:57.279Z,98347.37
2018-02-19T03:39:02.380Z,98353.53
2018-02-19T03:40:07.101Z,98353.55
2018-02-19T03:41:11.880Z,98356.03
2018-02-19T03:42:16.631Z,98354.82
2018-02-19T03:43:21.266Z,98351.59
2018-02-19T03:44:26.522Z,98351.59
2018-02-19T03:45:31.444Z,98350.77
2018-02-19T03:46:36.020Z,98345.45
2018-02-19T03:47:40.624Z,98352.03
2018-02-19T03:48:45.234Z,98350.38
2018-02-19T03:49:49.874Z,98345.87
2018-02-19T03:50:54.443Z,98347.09
2018-02-19T03:51:59.322Z,98343.76
2018-02-19T03:53:03.957Z,98340.88
2018-02-19T03:54:08.481Z,98341.73
2018-02-19T03:55:13.119Z,98334.33
2018-02-19T03:56:17.623Z,98336.39
2018-02-19T03:57:22.221Z,98333.94
2018-02-19T03:58:27.767Z,98333.09
2018-02-19T03:59:32.401Z,98334.30
2018-02-19T04:00:37.014Z,98334.73
2018-02-19T04:01:41.621Z,98331.44
2018-02-19T04:02:46.232Z,98331.84
2018-02-19T04:03:50.924Z,98329.38
2018-02-19T04:04:56.006Z,98339.25
2018-02-19T04:06:00.794Z,98339.66
2018-02-19T04:07:05.568Z,98328.97
2018-02-19T04:08:10.328Z,98330.19
2018-02-19T04:09:15.076Z,98328.14
2018-02-19T04:10:19.669Z,98329.80
2018-02-19T04:11:25.275Z,98326.11
2018-02-19T04:12:29.938Z,98320.36
2018-02-19T04:13:34.550Z,98324.87
2018-02-19T04:14:39.125Z,98320.75
2018-02-19T04:15:44.137Z,98321.16
2018-02-19T04:16:48.847Z,98320.31
2018-02-19T04:17:54.168Z,98317.84
2018-02-19T04:18:58.921Z,98321.96
2018-02-19T04:20:04.601Z,98317.05
2018-02-19T04:21:09.375Z,98314.59
2018-02-19T04:22:14.145Z,98317.44
2018-02-19T04:23:18.952Z,98318.26
2018-02-19T04:24:24.095Z,98310.88
2018-02-19T04:25:28.954Z,98309.64
2018-02-19T04:26:33.715Z,98305.92
2018-02-19T04:27:38.470Z,98307.55
2018-02-19T04:28:43.260Z,98303.83
2018-02-19T04:29:47.994Z,98310.42
2018-02-19T04:30:53.052Z,98307.93
2018-02-19T04:31:57.850Z,98307.50
2018-02-19T04:33:02.685Z,98304.62
2018-02-19T04:34:07.460Z,98303.78
2018-02-19T04:35:12.239Z,98299.69
2018-02-19T04:36:17.020Z,98298.88
2018-02-19T04:37:22.053Z,98298.45
2018-02-19T04:38:26.821Z,98297.19
2018-02-19T04:39:31.628Z,98298.42
2018-02-19T04:40:36.393Z,98298.39
2018-02-19T04:41:41.134Z,98302.47
2018-02-19T04:42:46.527Z,98294.63
2018-02-19T04:43:51.446Z,98294.66
2018-02-19T04:44:56.388Z,98299.64
2018-02-19T04:46:01.381Z,98292.66
2018-02-19T04:47:06.276Z,98288.99
2018-02-19T04:48:11.418Z,98288.20
2018-02-19T04:49:16.491Z,98289.88
2018-02-19T04:50:21.219Z,98287.82
2018-02-19T04:51:26.014Z,98287.80
2018-02-19T04:52:30.849Z,98290.64
2018-02-19T04:53:35.608Z,98286.92
2018-02-19T04:54:40.516Z,98281.98
2018-02-19T04:55:45.683Z,98284.04
2018-02-19T04:56:50.440Z,98281.14
2018-02-19T04:57:55.199Z,98286.03
2018-02-19T04:59:00.054Z,98285.63
2018-02-19T05:00:05.251Z,98288.13
2018-02-19T05:01:10.104Z,98288.56
2018-02-19T05:02:15.159Z,98281.56
2018-02-19T05:03:19.917Z,98284.45
2018-02-19T05:04:24.707Z,98289.33
2018-02-19T05:05:29.949Z,98278.61
2018-02-19T05:06:34.730Z,98284.38
2018-02-19T05:07:39.537Z,98283.94
2018-02-19T05:08:44.659Z,98285.14
2018-02-19T05:09:49.416Z,98284.73
2018-02-19T05:10:54.161Z,98278.98
2018-02-19T05:11:58.829Z,98276.52
2018-02-19T05:13:03.573Z,98277.36
2018-02-19T05:14:08.364Z,98279.02
2018-02-19T05:15:13.799Z,98279.00
2018-02-19T05:16:18.554Z,98280.69
2018-02-19T05:17:23.230Z,98280.73
2018-02-19T05:18:28.012Z,98276.23
2018-02-19T05:19:32.790Z,98281.59
2018-02-19T05:20:37.544Z,98281.22
2018-02-19T05:21:42.561Z,98279.14
2018-02-19T05:22:47.248Z,98282.38
2018-02-19T05:23:51.922Z,98280.73
2018-02-19T05:24:56.637Z,98277.02
2018-02-19T05:26:01.363Z,98277.01
2018-02-19T05:27:06.031Z,98279.59
2018-02-19T05:28:11.075Z,98272.61
2018-02-19T05:29:15.741Z,98279.21
2018-02-19T05:30:20.413Z,98274.69
2018-02-19T05:31:25.144Z,98276.31
2018-02-19T05:32:29.863Z,98275.50
2018-02-19T05:33:34.612Z,98270.96
2018-02-19T05:34:39.661Z,98273.84
2018-02-19T05:35:44.640Z,98274.67
2018-02-19T05:36:49.387Z,98275.09
2018-02-19T05:37:54.206Z,98274.27
2018-02-19T05:38:59.003Z,98276.33
2018-02-19T05:40:03.778Z,98275.50
2018-02-19T05:41:08.855Z,98278.35
2018-02-19T05:42:13.598Z,98279.16
2018-02-19T05:43:18.424Z,98270.93
2018-02-19T05:44:23.238Z,98277.52
2018-02-19T05:45:27.981Z,98270.95
2018-02-19T05:46:32.644Z,98271.37
2018-02-19T05:47:37.708Z,98272.56
2018-02-19T05:48:42.481Z,98266.81
2018-02-19T05:49:47.249Z,98266.83
2018-02-19T05:50:52.689Z,98273.43
2018-02-19T05:51:57.468Z,98276.31
2018-02-19T05:53:02.275Z,98275.91
2018-02-19T05:54:07.348Z,98277.08
2018-02-19T05:55:12.135Z,98277.45
2018-02-19T05:56:16.967Z,98278.69
2018-02-19T05:57:21.777Z,98279.88
2018-02-19T05:58:26.575Z,98285.67
2018-02-19T05:59:31.441Z,98278.59
2018-02-19T06:00:36.657Z,98285.96
2018-02-19T06:01:41.854Z,98278.50
2018-02-19T06:02:46.744Z,98279.73
2018-02-19T06:03:51.563Z,98279.37
2018-02-19T06:04:56.364Z,98278.13
2018-02-19T06:06:01.189Z,98278.98
2018-02-19T06:07:05.972Z,98273.64
2018-02-19T06:08:10.712Z,98275.34
2018-02-19T06:09:15.446Z,98283.98
2018-02-19T06:10:20.269Z,98282.33
2018-02-19T06:11:25.032Z,98288.88
2018-02-19T06:12:30.059Z,98291.73
2018-02-19T06:13:34.782Z,98292.91
2018-02-19T06:14:39.529Z,98292.88
2018-02-19T06:15:44.238Z,98283.77
2018-02-19T06:16:48.944Z,98278.45
2018-02-19T06:17:53.700Z,98276.09
2018-02-19T06:18:58.709Z,98279.43
2018-02-19T06:20:03.635Z,98277.03
2018-02-19T06:21:08.400Z,98277.07
2018-02-19T06:22:13.205Z,98272.63
2018-02-19T06:23:18.039Z,98273.45
2018-02-19T06:24:22.843Z,98276.71
2018-02-19T06:25:27.620Z,98273.42
2018-02-19T06:26:32.403Z,98268.89
2018-02-19T06:27:37.147Z,98270.55
2018-02-19T06:28:41.942Z,98272.58
2018-02-19T06:29:46.731Z,98268.83
2018-02-19T06:30:51.578Z,98269.64
2018-02-19T06:31:56.638Z,98269.59
2018-02-19T06:33:01.558Z,98276.58
2018-02-19T06:34:06.316Z,98272.03
2018-02-19T06:35:11.132Z,98270.37
2018-02-19T06:36:16.072Z,98273.23
2018-02-19T06:37:20.756Z,98273.64
2018-02-19T06:38:25.729Z,98265.83
2018-02-19T06:39:30.316Z,98271.56
2018-02-19T06:40:34.959Z,98268.25
2018-02-19T06:41:39.526Z,98265.78
2018-02-19T06:42:44.213Z,98267.00
2018-02-19T06:43:48.913Z,98262.06
2018-02-19T06:44:53.991Z,98260.42
2018-02-19T06:45:58.760Z,98264.55
2018-02-19T06:47:03.510Z,98262.91
2018-02-19T06:48:08.367Z,98260.84
2018-02-19T06:49:13.202Z,98257.13
2018-02-19T06:50:17.959Z,98257.59
2018-02-19T06:51:23.128Z,98251.03
2018-02-19T06:52:27.902Z,98255.58
2018-02-19T06:53:32.671Z,98250.59
2018-02-19T06:54:37.429Z,98250.98
2018-02-19T06:55:42.215Z,98254.27
2018-02-19T06:56:47.206Z,98249.67
2018-02-19T06:57:52.180Z,98247.20
2018-02-19T06:58:57.284Z,98248.09
2018-02-19T07:00:02.107Z,98246.02
2018-02-19T07:01:07.262Z,98246.00
2018-02-19T07:02:12.045Z,98243.92
2018-02-19T07:03:16.996Z,98241.03
2018-02-19T07:04:22.210Z,98244.70
2018-02-19T07:05:27.133Z,98245.52
2018-02-19T07:06:32.096Z,98242.63
2018-02-19T07:07:36.943Z,98241.89
2018-02-19T07:08:41.693Z,98236.93
2018-02-19T07:09:46.755Z,98235.27
2018-02-19T07:10:52.041Z,98242.16
2018-02-19T07:11:57.316Z,98242.98
2018-02-19T07:13:02.098Z,98239.27
2018-02-19T07:14:06.792Z,98241.76
2018-02-19T07:15:11.615Z,98238.04
2018-02-19T07:16:16.476Z,98238.04
2018-02-19T07:17:22.278Z,98245.41
2018-02-19T07:18:26.855Z,98240.42
2018-02-19T07:19:31.640Z,98245.80
2018-02-19T07:20:36.470Z,98238.42
2018-02-19T07:21:41.227Z,98238.43
2018-02-19T07:22:45.952Z,98240.91
2018-02-19T07:23:51.178Z,98247.06
2018-02-19T07:24:55.922Z,98243.44
2018-02-19T07:26:00.969Z,98254.92
2018-02-19T07:27:05.995Z,98256.50
2018-02-19T07:28:11.671Z,98258.92
2018-02-19T07:29:16.519Z,98261.37
2018-02-19T07:30:22.021Z,98263.37
2018-02-19T07:31:26.873Z,98261.23
2018-02-19T07:32:31.695Z,98258.27
2018-02-19T07:33:36.470Z,98262.70
2018-02-19T07:34:41.265Z,98262.56
2018-02-19T07:35:46.452Z,98262.93
2018-02-19T07:36:51.611Z,98258.03
2018-02-19T07:37:56.344Z,98261.01
2018-02-19T07:39:01.475Z,98254.48
2018-02-19T07:40:06.242Z,98251.14
2018-02-19T07:41:11.005Z,98255.72
2018-02-19T07:42:15.674Z,98252.22
2018-02-19T07:43:21.368Z,98251.91
2018-02-19T07:44:26.069Z,98251.47
2018-02-19T07:45:31.392Z,98248.87
2018-02-19T07:46:36.122Z,98249.97
2018-02-19T07:47:40.817Z,98255.59
2018-02-19T07:48:45.521Z,98254.78
2018-02-19T07:49:50.603Z,98260.08
2018-02-19T07:50:55.544Z,98259.69
2018-02-19T07:52:00.296Z,98258.09
2018-02-19T07:53:05.123Z,98268.27
2018-02-19T07:54:09.933Z,98261.80
2018-02-19T07:55:14.751Z,98267.49
2018-02-19T07:56:19.884Z,98272.27
2018-02-19T07:57:24.690Z,98273.44
2018-02-19T07:58:29.449Z,98281.60
2018-02-19T07:59:34.401Z,98287.69
2018-02-19T08:00:39.316Z,98280.70
2018-02-19T08:01:44.236Z,98277.77
2018-02-19T08:02:49.243Z,98282.50
2018-02-19T08:03:53.968Z,98277.73
2018-02-19T08:04:58.656Z,98278.55
2018-02-19T08:06:03.476Z,98277.78
2018-02-19T08:07:08.307Z,98273.22
2018-02-19T08:08:12.987Z,98266.92
2018-02-19T08:09:18.028Z,98265.21
2018-02-19T08:10:22.957Z,98263.06
2018-02-19T08:11:27.704Z,98260.73
2018-02-19T08:12:32.400Z,98258.09
2018-02-19T08:13:37.119Z,98250.69
2018-02-19T08:14:41.909Z,98260.91
2018-02-19T08:15:46.974Z,98251.00
2018-02-19T08:16:51.727Z,98249.01
2018-02-19T08:17:56.457Z,98249.61
2018-02-19T08:19:01.225Z,98241.83
2018-02-19T08:20:06.021Z,98245.98
2018-02-19T08:21:10.827Z,98238.89
2018-02-19T08:22:15.882Z,98240.16
2018-02-19T08:23:20.686Z,98236.42
2018-02-19T08:24:25.503Z,98236.52
2018-02-19T08:25:30.262Z,98241.04
2018-02-19T08:26:35.008Z,98243.44
2018-02-19T08:27:39.843Z,98244.74
2018-02-19T08:28:45.146Z,98231.48
2018-02-19T08:29:49.962Z,98231.41
2018-02-19T08:30:54.715Z,98234.27
2018-02-19T08:31:59.487Z,98233.75
2018-02-19T08:33:04.436Z,98230.16
2018-02-19T08:34:09.176Z,98226.44
2018-02-19T08:35:14.449Z,98224.77
2018-02-19T08:36:19.237Z,98221.11
2018-02-19T08:37:24.087Z,98224.39
2018-02-19T08:38:28.981Z,98221.45
2018-02-19T08:39:33.855Z,98223.22
2018-02-19T08:40:38.612Z,98220.34
2018-02-19T08:41:43.698Z,98217.05
2018-02-19T08:42:48.398Z,98219.54
2018-02-19T08:43:53.082Z,98212.00
2018-02-19T08:44:57.739Z,98213.61
2018-02-19T08:46:02.356Z,98207.34
2018-02-19T08:47:07.192Z,98202.27
2018-02-19T08:48:12.486Z,98204.95
2018-02-19T08:49:17.354Z,98201.28
2018-02-19T08:50:22.103Z,98195.53
2018-02-19T08:51:26.870Z,98197.77
2018-02-19T08:52:31.694Z,98202.98
2018-02-19T08:53:37.216Z,98202.08
2018-02-19T08:54:42.222Z,98193.53
2018-02-19T08:55:46.897Z,98194.25
2018-02-19T08:56:51.606Z,98194.36
2018-02-19T08:57:56.584Z,98190.29
2018-02-19T08:59:01.347Z,98190.05
2018-02-19T09:00:07.070Z,98187.81
2018-02-19T09:01:12.272Z,98181.84
2018-02-19T09:02:17.058Z,98179.59
2018-02-19T09:03:21.892Z,98179.06
2018-02-19T09:04:26.797Z,98175.64
2018-02-19T09:05:32.200Z,98171.91
2018-02-19T09:06:37.085Z,98168.95
2018-02-19T09:07:42.857Z,98177.80
2018-02-19T09:08:47.580Z,98177.42
2018-02-19T09:09:52.263Z,98165.50
2018-02-19T09:10:57.414Z,98163.44
2018-02-19T09:12:02.201Z,98162.03
2018-02-19T09:13:06.944Z,98165.95
2018-02-19T09:14:12.129Z,98163.58
2018-02-19T09:15:16.820Z,98163.22
2018-02-19T09:16:21.588Z,98169.97
2018-02-19T09:17:26.386Z,98164.44
2018-02-19T09:18:31.220Z,98159.05
2018-02-19T09:19:36.012Z,98158.71
2018-02-19T09:20:40.799Z,98163.25
2018-02-19T09:21:45.606Z,98152.94
2018-02-19T09:22:50.396Z,98158.71
2018-02-19T09:23:55.164Z,98152.25
2018-02-19T09:24:59.931Z,98146.77
2018-02-19T09:26:05.053Z,98150.97
2018-02-19T09:27:09.788Z,98154.43
2018-02-19T09:28:14.567Z,98160.38
2018-02-19T09:29:19.447Z,98160.91
2018-02-19T09:30:24.161Z,98158.83
2018-02-19T09:31:28.845Z,98157.02
2018-02-19T09:32:33.783Z,98159.11
2018-02-19T09:33:38.990Z,98164.30
2018-02-19T09:34:43.621Z,98153.38
2018-02-19T09:35:48.269Z,98158.67
2018-02-19T09:36:52.882Z,98156.09
2018-02-19T09:37:57.487Z,98150.09
2018-02-19T09:39:02.609Z,98148.34
2018-02-19T09:40:07.365Z,98154.16
2018-02-19T09:41:12.161Z,98151.69
2018-02-19T09:42:16.839Z,98155.59
2018-02-19T09:43:21.583Z,98148.34
2018-02-19T09:44:26.395Z,98148.34
2018-02-19T09:45:31.585Z,98153.78
2018-02-19T09:46:36.300Z,98151.14
2018-02-19T09:47:41.056Z,98165.98
2018-02-19T09:48:45.806Z,98153.19
2018-02-19T09:49:50.479Z,98157.00
2018-02-19T09:50:55.306Z,98154.22
2018-02-19T09:52:00.519Z,98157.48
2018-02-19T09:53:05.224Z,98166.34
2018-02-19T09:54:10.622Z,98168.62
2018-02-19T09:55:15.314Z,98166.72
2018-02-19T09:56:20.227Z,98158.41
2018-02-19T09:57:24.945Z,98156.43
2018-02-19T09:58:30.188Z,98157.09
2018-02-19T09:59:35.032Z,98153.80
2018-02-19T10:00:39.776Z,98162.48
2018-02-19T10:01:44.515Z,98163.80
2018-02-19T10:02:49.114Z,98162.09
2018-02-19T10:03:53.758Z,98154.55
2018-02-19T10:04:58.783Z,98161.17
2018-02-19T10:06:03.697Z,98157.09
2018-02-19T10:07:08.431Z,98151.92
2018-02-19T10:08:13.265Z,98156.16
2018-02-19T10:09:17.956Z,98157.88
2018-02-19T10:10:22.772Z,98157.99
2018-02-19T10:11:27.987Z,98159.50
2018-02-19T10:12:32.717Z,98170.52
2018-02-19T10:13:37.536Z,98157.11
2018-02-19T10:14:42.344Z,98160.81
2018-02-19T10:15:47.216Z,98159.12
2018-02-19T10:16:52.041Z,98159.30
2018-02-19T10:17:57.267Z,98159.17
2018-02-19T10:19:02.184Z,98161.89
2018-02-19T10:20:07.006Z,98163.70
2018-02-19T10:21:11.860Z,98158.82
2018-02-19T10:22:17.127Z,98157.68
2018-02-19T10:23:21.892Z,98157.39
2018-02-19T10:24:27.116Z,98157.97
2018-02-19T10:25:31.912Z,98159.89
2018-02-19T10:26:36.735Z,98154.19
2018-02-19T10:27:41.526Z,98154.41
2018-02-19T10:28:46.440Z,98158.20
2018-02-19T10:29:51.216Z,98147.22
2018-02-19T10:30:56.859Z,98146.39
2018-02-19T10:32:01.713Z,98158.47
2018-02-19T10:33:06.473Z,98152.67
2018-02-19T10:34:11.261Z,98145.16
2018-02-19T10:35:16.047Z,98156.94
2018-02-19T10:36:20.814Z,98154.20
2018-02-19T10:37:26.025Z,98156.25
2018-02-19T10:38:30.945Z,98156.08
2018-02-19T10:39:35.709Z,98155.55
2018-02-19T10:40:40.474Z,98153.61
2018-02-19T10:41:45.283Z,98152.73
2018-02-19T10:42:50.065Z,98156.76
2018-02-19T10:43:55.364Z,98151.08
2018-02-19T10:45:00.211Z,98156.17
2018-02-19T10:46:04.986Z,98155.39
2018-02-19T10:47:09.762Z,98156.19
2018-02-19T10:48:14.546Z,98154.16
2018-02-19T10:49:19.380Z,98150.73
2018-02-19T10:50:24.586Z,98149.80
2018-02-19T10:51:29.378Z,98152.00
2018-02-19T10:52:34.211Z,98150.11
2018-02-19T10:53:39.536Z,98142.91
2018-02-19T10:54:44.495Z,98142.87
2018-02-19T10:55:49.361Z,98140.36
2018-02-19T10:56:54.393Z,98142.34
2018-02-19T10:57:59.044Z,98143.35
2018-02-19T10:59:03.925Z,98135.39
2018-02-19T11:00:08.715Z,98137.34
2018-02-19T11:01:13.560Z,98134.30
2018-02-19T11:02:18.376Z,98130.48
2018-02-19T11:03:23.634Z,98133.43
2018-02-19T11:04:29.054Z,98130.06
2018-02-19T11:05:34.025Z,98129.16
2018-02-19T11:06:38.963Z,98123.84
2018-02-19T11:07:43.855Z,98123.92
2018-02-19T11:08:48.746Z,98116.87
2018-02-19T11:09:53.515Z,98127.43
2018-02-19T11:10:58.436Z,98120.22
2018-02-19T11:12:03.242Z,98118.93
2018-02-19T11:13:08.016Z,98118.09
2018-02-19T11:14:12.933Z,98113.07
2018-02-19T11:15:17.731Z,98118.48
2018-02-19T11:16:22.932Z,98112.97
2018-02-19T11:17:27.955Z,98108.05
2018-02-19T11:18:33.008Z,98108.65
2018-02-19T11:19:37.885Z,98105.16
2018-02-19T11:20:43.047Z,98103.56
2018-02-19T11:21:47.908Z,98096.83
2018-02-19T11:22:52.833Z,98102.52
2018-02-19T11:23:57.688Z,98102.52
2018-02-19T11:25:04.306Z,98103.67
2018-02-19T11:26:09.181Z,98109.80
2018-02-19T11:27:14.845Z,98106.44
2018-02-19T11:28:20.837Z,98110.16
2018-02-19T11:29:25.640Z,98110.40
2018-02-19T11:30:30.331Z,98109.16
2018-02-19T11:31:36.082Z,98103.75
2018-02-19T11:32:41.002Z,98101.10
2018-02-19T11:33:46.284Z,98109.50
2018-02-19T11:34:51.904Z,98100.78
2018-02-19T11:35:56.705Z,98096.35
2018-02-19T11:37:01.602Z,98095.79
2018-02-19T11:38:06.469Z,98094.77
2018-02-19T11:39:11.216Z,98099.02
2018-02-19T11:40:17.260Z,98104.15
2018-02-19T11:41:22.590Z,98090.60
2018-02-19T11:42:27.377Z,98092.45
2018-02-19T11:43:32.200Z,98090.45
2018-02-19T11:44:36.974Z,98088.14
2018-02-19T11:45:41.835Z,98091.98
2018-02-19T11:46:46.658Z,98087.97
2018-02-19T11:47:53.005Z,98092.56
2018-02-19T11:48:57.839Z,98092.94
2018-02-19T11:50:02.771Z,98091.97
2018-02-19T11:51:07.626Z,98092.45
2018-02-19T11:52:12.397Z,98082.27
2018-02-19T11:53:17.241Z,98079.50
2018-02-19T11:54:22.557Z,98085.64
2018-02-19T11:55:27.427Z,98080.73
2018-02-19T11:56:32.280Z,98072.62
2018-02-19T11:57:37.160Z,98077.77
2018-02-19T11:58:42.096Z,98073.11
2018-02-19T11:59:46.850Z,98070.78
2018-02-19T12:00:52.054Z,98073.04
2018-02-19T12:01:56.902Z,98079.11
2018-02-19T12:03:01.650Z,98077.78
2018-02-19T12:04:06.431Z,98072.57
2018-02-19T12:05:12.063Z,98075.89
2018-02-19T12:06:16.898Z,98073.59
2018-02-19T12:07:22.430Z,98072.73
2018-02-19T12:08:27.329Z,98079.36
2018-02-19T12:09:32.146Z,98076.81
2018-02-19T12:10:37.178Z,98075.96
2018-02-19T12:11:42.058Z,98080.80
2018-02-19T12:12:47.841Z,98085.86
2018-02-19T12:13:52.938Z,98075.45
2018-02-19T12:14:57.752Z,98078.38
2018-02-19T12:16:02.673Z,98073.77
2018-02-19T12:17:07.630Z,98069.66
2018-02-19T12:18:12.431Z,98076.24
2018-02-19T12:19:18.243Z,98068.99
2018-02-19T12:20:23.158Z,98064.96
2018-02-19T12:21:28.033Z,98071.30
2018-02-19T12:22:32.868Z,98066.29
2018-02-19T12:23:37.807Z,98070.53
2018-02-19T12:24:42.795Z,98066.77
2018-02-19T12:25:48.048Z,98066.05
2018-02-19T12:26:53.066Z,98066.85
2018-02-19T12:27:58.330Z,98061.52
2018-02-19T12:29:03.823Z,98062.48
2018-02-19T12:30:08.715Z,98057.54
2018-02-19T12:31:13.622Z,98057.92
2018-02-19T12:32:18.838Z,98052.84
2018-02-19T12:33:23.540Z,98044.23
2018-02-19T12:34:28.478Z,98042.48
2018-02-19T12:35:33.952Z,98045.81
2018-02-19T12:36:38.826Z,98047.29
2018-02-19T12:37:44.006Z,98049.61
2018-02-19T12:38:48.991Z,98048.53
2018-02-19T12:39:53.963Z,98053.58
2018-02-19T12:40:58.731Z,98043.33
2018-02-19T12:42:04.501Z,98041.16